Flag for Turkey

Past Weather in 41°00'48.9"N, 28°57'17.9"E, Turkey — Yesterday and Last 2 Weeks

Currently: 50 °F. Clear. (Weather station: Istanbul Ataturk Airport, Turkey). See more current weather

Past Weather in 41°00'48.9"N, 28°57'17.9"E — Graph

°F

41°00'48.9"N, 28°57'17.9"E Temperature Yesterday

Maximum temperature yesterday: 55 °F (at 12:50 pm)
Minimum temperature yesterday: 46 °F (at 12:20 am)
Average temperature yesterday: 50 °F

High & Low Weather Summary for the Past Weeks

 TemperatureHumidityPressure
High68 °F (Feb 25, 4:50 pm)94% (Feb 25, 4:50 am)30.39 "Hg (Feb 25, 4:50 am)
Low37 °F (Feb 21, 6:50 am)32% (Feb 25, 5:20 pm)29.83 "Hg (Feb 13, 8:20 pm)
Average49 °F75%30.14 "Hg
* Reported Feb 13 8:20 pm — Feb 28 8:50 pm, 41°00'48.9"N, 28°57'17.9"E. Weather by CustomWeather, © 2024

Note: Actual official high and low records may vary slightly from our data, if they occured in-between our weather recording intervals... More about our weather records

41°00'48.9"N, 28°57'17.9"E Weather History for the Previous 24 Hours

Scroll right to see more
 ConditionsComfort  
Time TempWeatherWind HumidityBarometerVisibility
8:50 pm
Wed, Feb 28
50 °FClear.9 mph71%30.18 "Hg10 mi
8:20 pm52 °FClear.8 mph67%30.18 "Hg10 mi
7:50 pm52 °FClear.8 mph67%30.18 "Hg10 mi
7:20 pm54 °FClear.8 mph63%30.18 "Hg10 mi
6:50 pm55 °FSunny.7 mph59%30.18 "Hg10 mi
6:20 pm55 °FScattered clouds.2 mph63%30.18 "Hg5 mi
5:50 pm55 °FScattered clouds.6 mph72%30.18 "Hg4 mi
5:20 pm57 °FScattered clouds.No wind72%30.18 "Hg4 mi
4:50 pm55 °FScattered clouds.2 mph77%30.18 "Hg4 mi
3:50 pm54 °FSunny.7 mph82%30.18 "Hg10 mi
3:20 pm54 °FSunny.5 mph77%30.18 "Hg10 mi
2:50 pm54 °FSunny.5 mph77%30.18 "Hg10 mi
2:20 pm54 °FSunny.7 mph77%30.21 "Hg10 mi
1:50 pm54 °FSunny.7 mph77%30.21 "Hg10 mi
1:20 pm55 °FPassing clouds.5 mph72%30.21 "HgN/A
12:50 pm54 °FSunny.2 mph77%30.21 "Hg10 mi
12:20 pm52 °FPassing clouds.5 mph77%30.24 "HgN/A
11:50 am52 °FPassing clouds.5 mph77%30.24 "HgN/A
11:20 am52 °FPassing clouds.5 mph77%30.24 "HgN/A
10:50 am52 °FSunny.2 mph77%30.24 "Hg10 mi
10:20 am48 °FPassing clouds.5 mph82%30.24 "HgN/A
9:50 am48 °FPassing clouds.5 mph82%30.24 "HgN/A
9:20 am46 °FPassing clouds.5 mph87%30.24 "HgN/A
8:50 am45 °FSunny.6 mph87%30.21 "Hg10 mi
8:20 am45 °FSunny.6 mph87%30.21 "Hg10 mi
7:50 am43 °FSunny.6 mph93%30.21 "Hg10 mi
7:20 am43 °FClear.6 mph93%30.21 "Hg10 mi
6:50 am45 °FClear.6 mph87%30.18 "Hg10 mi
6:20 am43 °FClear.5 mph93%30.18 "Hg10 mi
5:50 am45 °FClear.6 mph87%30.18 "Hg10 mi
5:20 am45 °FClear.3 mph87%30.18 "Hg10 mi
4:50 am45 °FClear.3 mph87%30.18 "Hg10 mi
4:20 am45 °FClear.5 mph87%30.18 "Hg10 mi
3:50 am45 °FClear.5 mph87%30.18 "Hg10 mi
3:20 am45 °FClear.3 mph87%30.18 "Hg10 mi
2:50 am45 °FClear.3 mph87%30.18 "Hg10 mi
2:20 am45 °FClear.7 mph87%30.18 "Hg10 mi
1:50 am45 °FClear.7 mph87%30.18 "Hg10 mi
1:20 am45 °FClear.7 mph87%30.18 "Hg10 mi
12:50 am46 °FClear.6 mph82%30.18 "Hg10 mi
12:20 am46 °FClear.6 mph82%30.18 "Hg10 mi
11:50 pm
Tue, Feb 27
46 °FClear.7 mph82%30.18 "Hg10 mi
11:20 pm46 °FClear.6 mph82%30.15 "Hg10 mi
10:50 pm48 °FClear.6 mph76%30.15 "Hg10 mi
10:20 pm48 °FClear.6 mph76%30.15 "Hg10 mi
Weather by CustomWeather, © 2024

See weather overview